sensor_id;sensor_type;location;lat;lon;timestamp;P1;durP1;ratioP1;P2;durP2;ratioP2
79480;SDS011;68944;48.262;14.208;2023-04-30T00:01:37;6.65;;;3.03;;
79480;SDS011;68944;48.262;14.208;2023-04-30T00:04:02;6.50;;;2.75;;
79480;SDS011;68944;48.262;14.208;2023-04-30T00:06:28;6.78;;;3.42;;
79480;SDS011;68944;48.262;14.208;2023-04-30T00:08:53;7.03;;;2.92;;
79480;SDS011;68944;48.262;14.208;2023-04-30T00:11:19;6.22;;;2.78;;
79480;SDS011;68944;48.262;14.208;2023-04-30T00:13:45;7.47;;;3.08;;
79480;SDS011;68944;48.262;14.208;2023-04-30T00:16:10;6.40;;;3.20;;
79480;SDS011;68944;48.262;14.208;2023-04-30T00:18:37;6.65;;;3.00;;
79480;SDS011;68944;48.262;14.208;2023-04-30T00:21:03;6.18;;;2.90;;
79480;SDS011;68944;48.262;14.208;2023-04-30T00:23:29;7.88;;;3.05;;
79480;SDS011;68944;48.262;14.208;2023-04-30T00:25:54;6.53;;;3.00;;
79480;SDS011;68944;48.262;14.208;2023-04-30T00:28:20;6.15;;;2.85;;
79480;SDS011;68944;48.262;14.208;2023-04-30T00:30:46;6.90;;;3.05;;
79480;SDS011;68944;48.262;14.208;2023-04-30T00:33:11;6.38;;;2.92;;
79480;SDS011;68944;48.262;14.208;2023-04-30T00:35:37;6.38;;;3.00;;
79480;SDS011;68944;48.262;14.208;2023-04-30T00:38:03;6.30;;;3.00;;
79480;SDS011;68944;48.262;14.208;2023-04-30T00:40:29;6.57;;;3.13;;
79480;SDS011;68944;48.262;14.208;2023-04-30T00:42:54;7.20;;;2.90;;
79480;SDS011;68944;48.262;14.208;2023-04-30T00:45:20;7.18;;;3.42;;
79480;SDS011;68944;48.262;14.208;2023-04-30T00:47:47;6.30;;;2.80;;
79480;SDS011;68944;48.262;14.208;2023-04-30T00:50:13;6.70;;;3.15;;
79480;SDS011;68944;48.262;14.208;2023-04-30T00:52:42;7.30;;;3.00;;
79480;SDS011;68944;48.262;14.208;2023-04-30T00:55:11;6.57;;;3.10;;
79480;SDS011;68944;48.262;14.208;2023-04-30T00:57:37;6.93;;;3.20;;
79480;SDS011;68944;48.262;14.208;2023-04-30T01:00:05;6.82;;;3.20;;
79480;SDS011;68944;48.262;14.208;2023-04-30T01:02:38;6.57;;;3.00;;
79480;SDS011;68944;48.262;14.208;2023-04-30T01:05:04;7.00;;;2.78;;
79480;SDS011;68944;48.262;14.208;2023-04-30T01:07:33;6.70;;;3.15;;
79480;SDS011;68944;48.262;14.208;2023-04-30T01:10:00;5.95;;;2.85;;
79480;SDS011;68944;48.262;14.208;2023-04-30T01:20:47;9.98;;;3.55;;
79480;SDS011;68944;48.262;14.208;2023-04-30T01:23:18;7.55;;;3.50;;
79480;SDS011;68944;48.262;14.208;2023-04-30T01:26:06;8.45;;;3.58;;
79480;SDS011;68944;48.262;14.208;2023-04-30T01:28:38;6.97;;;3.28;;
79480;SDS011;68944;48.262;14.208;2023-04-30T01:31:10;7.25;;;3.65;;
79480;SDS011;68944;48.262;14.208;2023-04-30T01:33:39;8.18;;;3.85;;
79480;SDS011;68944;48.262;14.208;2023-04-30T01:36:20;6.63;;;3.30;;
79480;SDS011;68944;48.262;14.208;2023-04-30T01:41:50;7.45;;;3.80;;
79480;SDS011;68944;48.262;14.208;2023-04-30T01:49:55;7.40;;;3.50;;
79480;SDS011;68944;48.262;14.208;2023-04-30T01:53:12;7.43;;;3.70;;
79480;SDS011;68944;48.262;14.208;2023-04-30T01:55:23;8.25;;;3.53;;
79480;SDS011;68944;48.262;14.208;2023-04-30T01:57:58;7.93;;;3.55;;
79480;SDS011;68944;48.262;14.208;2023-04-30T02:00:26;8.13;;;3.90;;
79480;SDS011;68944;48.262;14.208;2023-04-30T02:02:54;7.82;;;4.00;;
79480;SDS011;68944;48.262;14.208;2023-04-30T02:05:19;7.93;;;4.10;;
79480;SDS011;68944;48.262;14.208;2023-04-30T02:07:47;8.68;;;4.03;;
79480;SDS011;68944;48.262;14.208;2023-04-30T02:10:15;8.88;;;3.83;;
79480;SDS011;68944;48.262;14.208;2023-04-30T02:12:41;7.47;;;3.90;;
79480;SDS011;68944;48.262;14.208;2023-04-30T02:15:07;9.23;;;3.95;;
79480;SDS011;68944;48.262;14.208;2023-04-30T02:17:33;7.13;;;3.50;;
79480;SDS011;68944;48.262;14.208;2023-04-30T02:19:59;8.20;;;3.67;;
79480;SDS011;68944;48.262;14.208;2023-04-30T02:22:25;7.72;;;3.72;;
79480;SDS011;68944;48.262;14.208;2023-04-30T02:24:50;9.45;;;4.25;;
79480;SDS011;68944;48.262;14.208;2023-04-30T02:27:19;7.20;;;3.38;;
79480;SDS011;68944;48.262;14.208;2023-04-30T02:29:46;8.38;;;4.10;;
79480;SDS011;68944;48.262;14.208;2023-04-30T02:32:11;7.47;;;3.97;;
79480;SDS011;68944;48.262;14.208;2023-04-30T02:34:37;7.28;;;3.67;;
79480;SDS011;68944;48.262;14.208;2023-04-30T02:37:03;8.18;;;4.25;;
79480;SDS011;68944;48.262;14.208;2023-04-30T02:39:28;8.20;;;4.38;;
79480;SDS011;68944;48.262;14.208;2023-04-30T02:41:54;7.88;;;3.80;;
79480;SDS011;68944;48.262;14.208;2023-04-30T02:44:19;7.88;;;4.13;;
79480;SDS011;68944;48.262;14.208;2023-04-30T02:46:45;8.15;;;4.07;;
79480;SDS011;68944;48.262;14.208;2023-04-30T02:49:10;8.52;;;4.53;;
79480;SDS011;68944;48.262;14.208;2023-04-30T02:51:36;8.23;;;3.72;;
79480;SDS011;68944;48.262;14.208;2023-04-30T02:54:01;7.70;;;4.35;;
79480;SDS011;68944;48.262;14.208;2023-04-30T02:56:27;8.48;;;4.25;;
79480;SDS011;68944;48.262;14.208;2023-04-30T02:58:53;7.97;;;4.07;;
79480;SDS011;68944;48.262;14.208;2023-04-30T03:01:18;8.57;;;4.30;;
79480;SDS011;68944;48.262;14.208;2023-04-30T03:03:44;9.73;;;4.60;;
79480;SDS011;68944;48.262;14.208;2023-04-30T03:06:09;8.63;;;4.30;;
79480;SDS011;68944;48.262;14.208;2023-04-30T03:08:35;8.45;;;4.38;;
79480;SDS011;68944;48.262;14.208;2023-04-30T03:11:00;8.88;;;4.70;;
79480;SDS011;68944;48.262;14.208;2023-04-30T03:13:26;9.07;;;4.55;;
79480;SDS011;68944;48.262;14.208;2023-04-30T03:15:57;8.15;;;4.22;;
79480;SDS011;68944;48.262;14.208;2023-04-30T03:18:24;8.95;;;4.55;;
79480;SDS011;68944;48.262;14.208;2023-04-30T03:20:49;10.57;;;4.50;;
79480;SDS011;68944;48.262;14.208;2023-04-30T03:23:15;10.75;;;4.93;;
79480;SDS011;68944;48.262;14.208;2023-04-30T03:25:40;8.80;;;5.05;;
79480;SDS011;68944;48.262;14.208;2023-04-30T03:28:06;10.30;;;4.78;;
79480;SDS011;68944;48.262;14.208;2023-04-30T03:30:32;8.68;;;4.53;;
79480;SDS011;68944;48.262;14.208;2023-04-30T03:32:57;8.45;;;4.40;;
79480;SDS011;68944;48.262;14.208;2023-04-30T03:35:23;9.18;;;4.80;;
79480;SDS011;68944;48.262;14.208;2023-04-30T03:37:48;8.70;;;4.45;;
79480;SDS011;68944;48.262;14.208;2023-04-30T03:40:14;9.70;;;4.63;;
79480;SDS011;68944;48.262;14.208;2023-04-30T03:42:40;11.98;;;5.57;;
79480;SDS011;68944;48.262;14.208;2023-04-30T03:45:05;11.45;;;6.18;;
79480;SDS011;68944;48.262;14.208;2023-04-30T03:47:32;10.82;;;5.65;;
79480;SDS011;68944;48.262;14.208;2023-04-30T03:49:57;11.73;;;6.00;;
79480;SDS011;68944;48.262;14.208;2023-04-30T03:52:23;12.55;;;6.00;;
79480;SDS011;68944;48.262;14.208;2023-04-30T03:54:49;8.73;;;4.63;;
79480;SDS011;68944;48.262;14.208;2023-04-30T03:57:14;8.43;;;4.57;;
79480;SDS011;68944;48.262;14.208;2023-04-30T03:59:40;8.43;;;4.72;;
79480;SDS011;68944;48.262;14.208;2023-04-30T04:02:06;9.38;;;4.93;;
79480;SDS011;68944;48.262;14.208;2023-04-30T04:04:32;10.57;;;6.05;;
79480;SDS011;68944;48.262;14.208;2023-04-30T04:06:58;23.90;;;12.95;;
79480;SDS011;68944;48.262;14.208;2023-04-30T04:09:23;16.63;;;8.65;;
79480;SDS011;68944;48.262;14.208;2023-04-30T04:11:49;11.23;;;6.25;;
79480;SDS011;68944;48.262;14.208;2023-04-30T04:14:14;10.15;;;5.63;;
79480;SDS011;68944;48.262;14.208;2023-04-30T04:16:41;9.75;;;5.07;;
79480;SDS011;68944;48.262;14.208;2023-04-30T04:19:06;11.38;;;5.28;;
79480;SDS011;68944;48.262;14.208;2023-04-30T04:21:33;9.35;;;4.68;;
79480;SDS011;68944;48.262;14.208;2023-04-30T04:24:03;15.93;;;8.95;;
79480;SDS011;68944;48.262;14.208;2023-04-30T04:26:33;12.10;;;6.28;;
79480;SDS011;68944;48.262;14.208;2023-04-30T04:29:00;12.60;;;6.82;;
79480;SDS011;68944;48.262;14.208;2023-04-30T04:31:28;13.98;;;7.50;;
79480;SDS011;68944;48.262;14.208;2023-04-30T04:33:53;14.23;;;6.43;;
79480;SDS011;68944;48.262;14.208;2023-04-30T04:36:26;13.90;;;5.80;;
79480;SDS011;68944;48.262;14.208;2023-04-30T04:38:53;8.70;;;4.80;;
79480;SDS011;68944;48.262;14.208;2023-04-30T04:41:22;10.02;;;4.95;;
79480;SDS011;68944;48.262;14.208;2023-04-30T04:43:49;10.10;;;4.82;;
79480;SDS011;68944;48.262;14.208;2023-04-30T04:46:14;8.93;;;4.70;;
79480;SDS011;68944;48.262;14.208;2023-04-30T04:48:41;9.65;;;4.85;;
79480;SDS011;68944;48.262;14.208;2023-04-30T04:51:08;18.85;;;10.35;;
79480;SDS011;68944;48.262;14.208;2023-04-30T04:53:34;19.42;;;10.65;;
79480;SDS011;68944;48.262;14.208;2023-04-30T04:56:00;8.95;;;4.93;;
79480;SDS011;68944;48.262;14.208;2023-04-30T04:58:25;9.20;;;4.60;;
79480;SDS011;68944;48.262;14.208;2023-04-30T05:00:51;8.77;;;4.72;;
79480;SDS011;68944;48.262;14.208;2023-04-30T05:03:17;8.77;;;4.97;;
79480;SDS011;68944;48.262;14.208;2023-04-30T05:05:44;8.77;;;4.60;;
79480;SDS011;68944;48.262;14.208;2023-04-30T05:08:10;9.57;;;5.13;;
79480;SDS011;68944;48.262;14.208;2023-04-30T05:10:36;9.90;;;4.78;;
79480;SDS011;68944;48.262;14.208;2023-04-30T05:13:01;8.70;;;4.95;;
79480;SDS011;68944;48.262;14.208;2023-04-30T05:15:27;16.08;;;9.55;;
79480;SDS011;68944;48.262;14.208;2023-04-30T05:17:52;12.77;;;7.13;;
79480;SDS011;68944;48.262;14.208;2023-04-30T05:20:18;10.50;;;5.60;;
79480;SDS011;68944;48.262;14.208;2023-04-30T05:22:43;11.00;;;5.57;;
79480;SDS011;68944;48.262;14.208;2023-04-30T05:25:09;10.52;;;5.90;;
79480;SDS011;68944;48.262;14.208;2023-04-30T05:27:34;11.88;;;6.65;;
79480;SDS011;68944;48.262;14.208;2023-04-30T05:30:00;10.23;;;5.93;;
79480;SDS011;68944;48.262;14.208;2023-04-30T05:32:26;10.95;;;5.80;;
79480;SDS011;68944;48.262;14.208;2023-04-30T05:34:52;10.57;;;6.07;;
79480;SDS011;68944;48.262;14.208;2023-04-30T05:37:17;11.68;;;7.10;;
79480;SDS011;68944;48.262;14.208;2023-04-30T05:39:45;12.43;;;6.78;;
79480;SDS011;68944;48.262;14.208;2023-04-30T05:42:10;13.52;;;7.18;;
79480;SDS011;68944;48.262;14.208;2023-04-30T05:44:36;10.80;;;6.10;;
79480;SDS011;68944;48.262;14.208;2023-04-30T05:47:01;11.32;;;5.97;;
79480;SDS011;68944;48.262;14.208;2023-04-30T05:49:28;11.38;;;5.72;;
79480;SDS011;68944;48.262;14.208;2023-04-30T05:51:54;10.05;;;5.40;;
79480;SDS011;68944;48.262;14.208;2023-04-30T05:54:19;10.10;;;5.60;;
79480;SDS011;68944;48.262;14.208;2023-04-30T05:56:44;11.93;;;5.95;;
79480;SDS011;68944;48.262;14.208;2023-04-30T05:59:10;15.32;;;8.20;;
79480;SDS011;68944;48.262;14.208;2023-04-30T06:01:36;14.88;;;8.18;;
79480;SDS011;68944;48.262;14.208;2023-04-30T06:04:01;15.27;;;7.78;;
79480;SDS011;68944;48.262;14.208;2023-04-30T06:06:29;14.60;;;7.25;;
79480;SDS011;68944;48.262;14.208;2023-04-30T06:08:56;13.75;;;7.65;;
79480;SDS011;68944;48.262;14.208;2023-04-30T06:11:21;12.43;;;6.38;;
79480;SDS011;68944;48.262;14.208;2023-04-30T06:13:49;12.65;;;6.22;;
79480;SDS011;68944;48.262;14.208;2023-04-30T06:16:15;14.82;;;7.53;;
79480;SDS011;68944;48.262;14.208;2023-04-30T06:18:41;13.55;;;7.43;;
79480;SDS011;68944;48.262;14.208;2023-04-30T06:21:06;15.10;;;7.40;;
79480;SDS011;68944;48.262;14.208;2023-04-30T06:23:32;13.10;;;7.75;;
79480;SDS011;68944;48.262;14.208;2023-04-30T06:25:57;13.10;;;6.90;;
79480;SDS011;68944;48.262;14.208;2023-04-30T06:28:23;13.27;;;7.22;;
79480;SDS011;68944;48.262;14.208;2023-04-30T06:30:48;12.05;;;7.07;;
79480;SDS011;68944;48.262;14.208;2023-04-30T06:33:14;12.90;;;7.50;;
79480;SDS011;68944;48.262;14.208;2023-04-30T06:35:40;13.90;;;8.25;;
79480;SDS011;68944;48.262;14.208;2023-04-30T06:38:05;13.05;;;7.53;;
79480;SDS011;68944;48.262;14.208;2023-04-30T06:40:31;13.32;;;8.02;;
79480;SDS011;68944;48.262;14.208;2023-04-30T06:42:56;11.75;;;6.95;;
79480;SDS011;68944;48.262;14.208;2023-04-30T06:45:22;12.43;;;6.80;;
79480;SDS011;68944;48.262;14.208;2023-04-30T06:47:47;15.07;;;9.73;;
79480;SDS011;68944;48.262;14.208;2023-04-30T06:50:13;11.57;;;6.45;;
79480;SDS011;68944;48.262;14.208;2023-04-30T06:52:40;13.88;;;7.85;;
79480;SDS011;68944;48.262;14.208;2023-04-30T06:55:05;12.00;;;7.55;;
79480;SDS011;68944;48.262;14.208;2023-04-30T06:57:31;11.63;;;7.15;;
79480;SDS011;68944;48.262;14.208;2023-04-30T06:59:57;14.35;;;7.25;;
79480;SDS011;68944;48.262;14.208;2023-04-30T07:02:22;12.35;;;6.72;;
79480;SDS011;68944;48.262;14.208;2023-04-30T07:04:48;10.93;;;6.65;;
79480;SDS011;68944;48.262;14.208;2023-04-30T07:07:13;12.05;;;6.75;;
79480;SDS011;68944;48.262;14.208;2023-04-30T07:09:39;12.65;;;6.32;;
79480;SDS011;68944;48.262;14.208;2023-04-30T07:12:05;11.23;;;6.57;;
79480;SDS011;68944;48.262;14.208;2023-04-30T07:14:31;14.82;;;8.25;;
79480;SDS011;68944;48.262;14.208;2023-04-30T07:16:56;14.07;;;7.43;;
79480;SDS011;68944;48.262;14.208;2023-04-30T07:19:22;14.30;;;7.20;;
79480;SDS011;68944;48.262;14.208;2023-04-30T07:21:49;13.57;;;6.95;;
79480;SDS011;68944;48.262;14.208;2023-04-30T07:24:14;13.20;;;6.85;;
79480;SDS011;68944;48.262;14.208;2023-04-30T07:26:40;12.50;;;7.30;;
79480;SDS011;68944;48.262;14.208;2023-04-30T07:29:06;13.35;;;7.35;;
79480;SDS011;68944;48.262;14.208;2023-04-30T07:31:32;12.07;;;7.13;;
79480;SDS011;68944;48.262;14.208;2023-04-30T07:33:58;11.10;;;6.93;;
79480;SDS011;68944;48.262;14.208;2023-04-30T07:36:24;15.20;;;7.32;;
79480;SDS011;68944;48.262;14.208;2023-04-30T07:38:51;17.08;;;10.15;;
79480;SDS011;68944;48.262;14.208;2023-04-30T07:41:17;12.38;;;7.78;;
79480;SDS011;68944;48.262;14.208;2023-04-30T07:43:42;12.40;;;6.90;;
79480;SDS011;68944;48.262;14.208;2023-04-30T07:46:08;14.63;;;6.95;;
79480;SDS011;68944;48.262;14.208;2023-04-30T07:48:34;13.00;;;7.70;;
79480;SDS011;68944;48.262;14.208;2023-04-30T07:50:59;18.88;;;6.97;;
79480;SDS011;68944;48.262;14.208;2023-04-30T07:53:25;13.80;;;6.85;;
79480;SDS011;68944;48.262;14.208;2023-04-30T07:55:50;11.52;;;6.65;;
79480;SDS011;68944;48.262;14.208;2023-04-30T07:58:16;11.68;;;6.45;;
79480;SDS011;68944;48.262;14.208;2023-04-30T08:00:41;9.27;;;5.70;;
79480;SDS011;68944;48.262;14.208;2023-04-30T08:03:07;15.15;;;8.48;;
79480;SDS011;68944;48.262;14.208;2023-04-30T08:05:33;13.27;;;7.68;;
79480;SDS011;68944;48.262;14.208;2023-04-30T08:07:58;14.25;;;6.70;;
79480;SDS011;68944;48.262;14.208;2023-04-30T08:10:24;11.23;;;5.40;;
79480;SDS011;68944;48.262;14.208;2023-04-30T08:12:51;10.00;;;5.70;;
79480;SDS011;68944;48.262;14.208;2023-04-30T08:15:17;12.95;;;5.80;;
79480;SDS011;68944;48.262;14.208;2023-04-30T08:17:45;17.20;;;5.60;;
79480;SDS011;68944;48.262;14.208;2023-04-30T08:20:13;9.88;;;5.13;;
79480;SDS011;68944;48.262;14.208;2023-04-30T08:22:38;13.15;;;6.30;;
79480;SDS011;68944;48.262;14.208;2023-04-30T08:25:04;16.85;;;9.85;;
79480;SDS011;68944;48.262;14.208;2023-04-30T08:27:30;14.50;;;7.40;;
79480;SDS011;68944;48.262;14.208;2023-04-30T08:29:56;11.73;;;6.43;;
79480;SDS011;68944;48.262;14.208;2023-04-30T08:32:22;11.10;;;6.15;;
79480;SDS011;68944;48.262;14.208;2023-04-30T08:34:47;10.13;;;5.13;;
79480;SDS011;68944;48.262;14.208;2023-04-30T08:37:13;11.30;;;4.78;;
79480;SDS011;68944;48.262;14.208;2023-04-30T08:39:38;9.13;;;4.82;;
79480;SDS011;68944;48.262;14.208;2023-04-30T08:42:07;11.57;;;4.85;;
79480;SDS011;68944;48.262;14.208;2023-04-30T08:44:33;10.77;;;5.32;;
79480;SDS011;68944;48.262;14.208;2023-04-30T08:47:03;10.40;;;5.47;;
79480;SDS011;68944;48.262;14.208;2023-04-30T08:49:32;11.38;;;5.25;;
79480;SDS011;68944;48.262;14.208;2023-04-30T08:51:57;12.40;;;5.07;;
79480;SDS011;68944;48.262;14.208;2023-04-30T08:54:25;10.73;;;5.85;;
79480;SDS011;68944;48.262;14.208;2023-04-30T08:56:54;9.80;;;5.53;;
79480;SDS011;68944;48.262;14.208;2023-04-30T08:59:20;11.55;;;5.00;;
79480;SDS011;68944;48.262;14.208;2023-04-30T09:01:45;10.70;;;5.10;;
79480;SDS011;68944;48.262;14.208;2023-04-30T09:04:11;9.45;;;4.93;;
79480;SDS011;68944;48.262;14.208;2023-04-30T09:06:37;10.98;;;4.90;;
79480;SDS011;68944;48.262;14.208;2023-04-30T09:09:10;10.43;;;5.18;;
79480;SDS011;68944;48.262;14.208;2023-04-30T09:11:36;9.40;;;5.10;;
79480;SDS011;68944;48.262;14.208;2023-04-30T09:14:02;10.43;;;5.00;;
79480;SDS011;68944;48.262;14.208;2023-04-30T09:16:29;8.98;;;4.65;;
79480;SDS011;68944;48.262;14.208;2023-04-30T09:19:09;14.35;;;8.25;;
79480;SDS011;68944;48.262;14.208;2023-04-30T09:21:47;11.82;;;5.35;;
79480;SDS011;68944;48.262;14.208;2023-04-30T09:24:12;20.17;;;11.77;;
79480;SDS011;68944;48.262;14.208;2023-04-30T09:26:38;12.55;;;6.97;;
79480;SDS011;68944;48.262;14.208;2023-04-30T09:29:03;12.15;;;6.30;;
79480;SDS011;68944;48.262;14.208;2023-04-30T09:31:33;12.45;;;5.18;;
79480;SDS011;68944;48.262;14.208;2023-04-30T09:34:00;9.02;;;4.97;;
79480;SDS011;68944;48.262;14.208;2023-04-30T09:36:25;11.25;;;5.38;;
79480;SDS011;68944;48.262;14.208;2023-04-30T09:38:52;13.27;;;7.10;;
79480;SDS011;68944;48.262;14.208;2023-04-30T09:41:21;10.43;;;6.10;;
79480;SDS011;68944;48.262;14.208;2023-04-30T09:43:52;10.57;;;5.10;;
79480;SDS011;68944;48.262;14.208;2023-04-30T09:46:18;9.43;;;4.80;;
79480;SDS011;68944;48.262;14.208;2023-04-30T09:48:45;10.15;;;4.60;;
79480;SDS011;68944;48.262;14.208;2023-04-30T09:51:11;11.75;;;4.50;;
79480;SDS011;68944;48.262;14.208;2023-04-30T09:53:36;9.38;;;5.00;;
79480;SDS011;68944;48.262;14.208;2023-04-30T09:56:05;9.43;;;4.47;;
79480;SDS011;68944;48.262;14.208;2023-04-30T09:58:35;9.82;;;4.05;;
79480;SDS011;68944;48.262;14.208;2023-04-30T10:01:04;8.75;;;4.32;;
79480;SDS011;68944;48.262;14.208;2023-04-30T10:03:36;8.75;;;4.25;;
79480;SDS011;68944;48.262;14.208;2023-04-30T10:06:06;10.50;;;4.55;;
79480;SDS011;68944;48.262;14.208;2023-04-30T10:08:35;9.63;;;3.92;;
79480;SDS011;68944;48.262;14.208;2023-04-30T10:11:06;10.02;;;4.38;;
79480;SDS011;68944;48.262;14.208;2023-04-30T10:19:22;8.75;;;3.75;;
79480;SDS011;68944;48.262;14.208;2023-04-30T10:21:48;9.10;;;4.20;;
79480;SDS011;68944;48.262;14.208;2023-04-30T10:24:15;8.38;;;3.85;;
79480;SDS011;68944;48.262;14.208;2023-04-30T10:26:43;8.63;;;3.67;;
79480;SDS011;68944;48.262;14.208;2023-04-30T10:29:11;8.02;;;3.38;;
79480;SDS011;68944;48.262;14.208;2023-04-30T10:31:37;11.80;;;4.65;;
79480;SDS011;68944;48.262;14.208;2023-04-30T10:39:52;11.70;;;3.25;;
79480;SDS011;68944;48.262;14.208;2023-04-30T10:42:18;7.78;;;3.33;;
79480;SDS011;68944;48.262;14.208;2023-04-30T10:44:44;7.63;;;2.97;;
79480;SDS011;68944;48.262;14.208;2023-04-30T10:47:10;8.35;;;2.83;;
79480;SDS011;68944;48.262;14.208;2023-04-30T10:49:36;8.68;;;2.97;;
79480;SDS011;68944;48.262;14.208;2023-04-30T10:52:02;11.90;;;5.75;;
79480;SDS011;68944;48.262;14.208;2023-04-30T10:54:30;9.18;;;4.32;;
79480;SDS011;68944;48.262;14.208;2023-04-30T10:57:15;8.95;;;3.17;;
79480;SDS011;68944;48.262;14.208;2023-04-30T10:59:51;7.95;;;3.03;;
79480;SDS011;68944;48.262;14.208;2023-04-30T11:02:18;6.30;;;2.90;;
79480;SDS011;68944;48.262;14.208;2023-04-30T11:07:58;7.50;;;2.83;;
79480;SDS011;68944;48.262;14.208;2023-04-30T11:10:24;11.48;;;4.30;;
79480;SDS011;68944;48.262;14.208;2023-04-30T11:12:51;11.57;;;4.78;;
79480;SDS011;68944;48.262;14.208;2023-04-30T11:15:19;8.07;;;3.30;;
79480;SDS011;68944;48.262;14.208;2023-04-30T11:17:47;8.95;;;3.60;;
79480;SDS011;68944;48.262;14.208;2023-04-30T11:20:17;8.07;;;3.47;;
79480;SDS011;68944;48.262;14.208;2023-04-30T11:22:44;6.93;;;3.50;;
79480;SDS011;68944;48.262;14.208;2023-04-30T11:25:10;9.02;;;3.60;;
79480;SDS011;68944;48.262;14.208;2023-04-30T11:27:40;9.48;;;3.53;;
79480;SDS011;68944;48.262;14.208;2023-04-30T11:30:08;7.78;;;3.30;;
79480;SDS011;68944;48.262;14.208;2023-04-30T11:32:35;7.47;;;3.25;;
79480;SDS011;68944;48.262;14.208;2023-04-30T11:35:01;8.38;;;3.55;;
79480;SDS011;68944;48.262;14.208;2023-04-30T11:40:02;9.25;;;4.68;;
79480;SDS011;68944;48.262;14.208;2023-04-30T11:42:30;9.98;;;5.00;;
79480;SDS011;68944;48.262;14.208;2023-04-30T11:45:02;8.43;;;3.63;;
79480;SDS011;68944;48.262;14.208;2023-04-30T11:47:37;6.97;;;2.90;;
79480;SDS011;68944;48.262;14.208;2023-04-30T11:50:04;7.85;;;2.70;;
79480;SDS011;68944;48.262;14.208;2023-04-30T11:52:30;7.20;;;2.50;;
79480;SDS011;68944;48.262;14.208;2023-04-30T11:54:56;5.65;;;2.10;;
79480;SDS011;68944;48.262;14.208;2023-04-30T11:57:22;6.28;;;2.55;;
79480;SDS011;68944;48.262;14.208;2023-04-30T11:59:47;11.80;;;5.80;;
79480;SDS011;68944;48.262;14.208;2023-04-30T12:02:14;8.35;;;3.20;;
79480;SDS011;68944;48.262;14.208;2023-04-30T12:04:42;6.35;;;2.78;;
79480;SDS011;68944;48.262;14.208;2023-04-30T12:07:08;6.82;;;3.20;;
79480;SDS011;68944;48.262;14.208;2023-04-30T12:09:50;7.78;;;3.38;;
79480;SDS011;68944;48.262;14.208;2023-04-30T12:12:25;9.45;;;3.03;;
79480;SDS011;68944;48.262;14.208;2023-04-30T12:14:54;8.63;;;3.15;;
79480;SDS011;68944;48.262;14.208;2023-04-30T12:17:33;9.23;;;3.05;;
79480;SDS011;68944;48.262;14.208;2023-04-30T12:19:59;7.03;;;3.20;;
79480;SDS011;68944;48.262;14.208;2023-04-30T12:22:25;7.82;;;3.38;;
79480;SDS011;68944;48.262;14.208;2023-04-30T12:24:51;8.07;;;3.30;;
79480;SDS011;68944;48.262;14.208;2023-04-30T12:27:17;8.77;;;3.40;;
79480;SDS011;68944;48.262;14.208;2023-04-30T12:29:42;6.57;;;2.88;;
79480;SDS011;68944;48.262;14.208;2023-04-30T12:32:10;9.27;;;3.03;;
79480;SDS011;68944;48.262;14.208;2023-04-30T12:34:40;9.05;;;3.40;;
79480;SDS011;68944;48.262;14.208;2023-04-30T12:37:06;11.85;;;5.50;;
79480;SDS011;68944;48.262;14.208;2023-04-30T12:39:32;8.80;;;4.30;;
79480;SDS011;68944;48.262;14.208;2023-04-30T12:41:59;7.00;;;3.72;;
79480;SDS011;68944;48.262;14.208;2023-04-30T12:44:25;8.32;;;3.10;;
79480;SDS011;68944;48.262;14.208;2023-04-30T12:46:53;8.10;;;2.80;;
79480;SDS011;68944;48.262;14.208;2023-04-30T12:49:33;8.90;;;3.20;;
79480;SDS011;68944;48.262;14.208;2023-04-30T12:52:03;8.07;;;2.83;;
79480;SDS011;68944;48.262;14.208;2023-04-30T12:54:34;6.40;;;2.70;;
79480;SDS011;68944;48.262;14.208;2023-04-30T12:57:01;10.40;;;2.53;;
79480;SDS011;68944;48.262;14.208;2023-04-30T12:59:33;7.32;;;3.10;;
79480;SDS011;68944;48.262;14.208;2023-04-30T13:02:10;8.00;;;2.88;;
79480;SDS011;68944;48.262;14.208;2023-04-30T13:04:42;8.32;;;2.65;;
79480;SDS011;68944;48.262;14.208;2023-04-30T13:07:08;6.47;;;2.40;;
79480;SDS011;68944;48.262;14.208;2023-04-30T13:09:35;5.63;;;1.90;;
79480;SDS011;68944;48.262;14.208;2023-04-30T13:12:05;6.65;;;2.55;;
79480;SDS011;68944;48.262;14.208;2023-04-30T13:14:31;6.32;;;2.33;;
79480;SDS011;68944;48.262;14.208;2023-04-30T13:16:57;6.20;;;2.25;;
79480;SDS011;68944;48.262;14.208;2023-04-30T13:19:23;6.97;;;2.53;;
79480;SDS011;68944;48.262;14.208;2023-04-30T13:21:49;9.75;;;4.18;;
79480;SDS011;68944;48.262;14.208;2023-04-30T13:24:15;9.52;;;3.97;;
79480;SDS011;68944;48.262;14.208;2023-04-30T13:26:41;10.43;;;2.72;;
79480;SDS011;68944;48.262;14.208;2023-04-30T13:29:07;7.72;;;2.40;;
79480;SDS011;68944;48.262;14.208;2023-04-30T13:31:33;6.55;;;2.30;;
79480;SDS011;68944;48.262;14.208;2023-04-30T13:33:58;8.48;;;2.08;;
79480;SDS011;68944;48.262;14.208;2023-04-30T13:36:24;6.53;;;2.20;;
79480;SDS011;68944;48.262;14.208;2023-04-30T13:38:51;6.30;;;2.30;;
79480;SDS011;68944;48.262;14.208;2023-04-30T13:41:17;7.53;;;2.15;;
79480;SDS011;68944;48.262;14.208;2023-04-30T13:43:42;6.22;;;2.00;;
79480;SDS011;68944;48.262;14.208;2023-04-30T13:46:10;6.28;;;2.00;;
79480;SDS011;68944;48.262;14.208;2023-04-30T13:48:36;6.28;;;2.00;;
79480;SDS011;68944;48.262;14.208;2023-04-30T13:51:01;7.00;;;2.10;;
79480;SDS011;68944;48.262;14.208;2023-04-30T13:53:27;6.20;;;2.10;;
79480;SDS011;68944;48.262;14.208;2023-04-30T13:55:53;10.00;;;5.47;;
79480;SDS011;68944;48.262;14.208;2023-04-30T13:58:19;5.72;;;2.35;;
79480;SDS011;68944;48.262;14.208;2023-04-30T14:00:44;8.05;;;2.28;;
79480;SDS011;68944;48.262;14.208;2023-04-30T14:03:10;6.15;;;2.03;;
79480;SDS011;68944;48.262;14.208;2023-04-30T14:05:36;8.75;;;3.72;;
79480;SDS011;68944;48.262;14.208;2023-04-30T14:08:03;9.65;;;4.35;;
79480;SDS011;68944;48.262;14.208;2023-04-30T14:10:30;6.60;;;2.13;;
79480;SDS011;68944;48.262;14.208;2023-04-30T14:12:56;4.88;;;1.88;;
79480;SDS011;68944;48.262;14.208;2023-04-30T14:15:22;4.85;;;1.70;;
79480;SDS011;68944;48.262;14.208;2023-04-30T14:17:48;7.72;;;2.00;;
79480;SDS011;68944;48.262;14.208;2023-04-30T14:20:14;6.38;;;1.88;;
79480;SDS011;68944;48.262;14.208;2023-04-30T14:22:40;6.00;;;1.92;;
79480;SDS011;68944;48.262;14.208;2023-04-30T14:25:06;10.05;;;6.05;;
79480;SDS011;68944;48.262;14.208;2023-04-30T14:27:32;10.68;;;5.40;;
79480;SDS011;68944;48.262;14.208;2023-04-30T14:29:57;6.72;;;2.70;;
79480;SDS011;68944;48.262;14.208;2023-04-30T14:32:26;6.47;;;2.00;;
79480;SDS011;68944;48.262;14.208;2023-04-30T14:34:51;6.30;;;1.90;;
79480;SDS011;68944;48.262;14.208;2023-04-30T14:37:17;6.60;;;1.90;;
79480;SDS011;68944;48.262;14.208;2023-04-30T14:39:44;5.82;;;1.95;;
79480;SDS011;68944;48.262;14.208;2023-04-30T14:42:10;5.78;;;1.90;;
79480;SDS011;68944;48.262;14.208;2023-04-30T14:44:36;6.63;;;2.00;;
79480;SDS011;68944;48.262;14.208;2023-04-30T14:47:02;7.30;;;2.00;;
79480;SDS011;68944;48.262;14.208;2023-04-30T14:49:29;5.13;;;2.00;;
79480;SDS011;68944;48.262;14.208;2023-04-30T14:51:55;5.97;;;2.15;;
79480;SDS011;68944;48.262;14.208;2023-04-30T14:54:21;5.30;;;2.10;;
79480;SDS011;68944;48.262;14.208;2023-04-30T14:56:46;7.15;;;1.90;;
79480;SDS011;68944;48.262;14.208;2023-04-30T14:59:13;5.75;;;1.80;;
79480;SDS011;68944;48.262;14.208;2023-04-30T15:01:38;8.27;;;1.90;;